createdAt,value
2022-12-06T18:37:04.882Z,14.10
2022-12-06T18:39:33.118Z,14.20
2022-12-06T18:42:01.085Z,14.68
2022-12-06T18:44:28.719Z,14.73
2022-12-06T18:46:56.650Z,14.81
2022-12-06T18:49:24.341Z,14.99
2022-12-06T18:51:52.204Z,15.09
2022-12-06T18:54:20.751Z,15.08
2022-12-06T18:56:48.457Z,15.22
2022-12-06T18:59:16.194Z,15.31
2022-12-06T19:01:44.296Z,15.33
2022-12-06T19:04:14.810Z,15.39
2022-12-06T19:06:43.752Z,15.36
2022-12-06T19:09:14.904Z,14.63
2022-12-06T19:11:46.935Z,14.24
2022-12-06T19:14:17.161Z,14.27
2022-12-06T19:16:48.768Z,14.72
2022-12-06T19:19:22.027Z,14.90
2022-12-06T19:21:51.688Z,14.96
2022-12-06T19:24:23.471Z,15.08
2022-12-06T19:26:53.113Z,15.24
2022-12-06T19:29:22.123Z,15.22
2022-12-06T19:31:50.272Z,15.29
2022-12-06T19:34:25.157Z,15.41
2022-12-06T19:36:54.965Z,15.51
2022-12-06T19:39:24.228Z,15.54
2022-12-06T19:42:10.584Z,15.28
2022-12-06T19:44:38.627Z,14.54
2022-12-06T19:47:06.311Z,14.25
2022-12-06T19:49:34.271Z,14.60
2022-12-06T19:52:02.046Z,14.96
2022-12-06T19:54:32.565Z,15.06
2022-12-06T19:57:01.973Z,15.22
2022-12-06T19:59:34.247Z,15.33
2022-12-06T20:02:04.133Z,15.42
2022-12-06T20:04:37.947Z,15.47
2022-12-06T20:07:07.548Z,15.53
2022-12-06T20:09:35.293Z,15.65
2022-12-06T20:12:05.461Z,15.62
2022-12-06T20:14:44.491Z,15.69
2022-12-06T20:17:22.833Z,15.16
2022-12-06T20:19:51.094Z,14.58
2022-12-06T20:22:20.139Z,14.29
2022-12-06T20:24:48.473Z,14.72
2022-12-06T20:27:16.315Z,15.01
2022-12-06T20:29:43.981Z,15.11
2022-12-06T20:32:11.774Z,15.26
2022-12-06T20:34:39.796Z,15.39
2022-12-06T20:37:07.545Z,15.51
2022-12-06T20:39:36.259Z,15.60
2022-12-06T20:42:06.463Z,15.68
2022-12-06T20:44:35.028Z,15.72
2022-12-06T20:47:02.880Z,15.77
2022-12-06T20:49:31.111Z,15.81
2022-12-06T20:52:00.609Z,15.26
2022-12-06T20:54:28.578Z,14.65
2022-12-06T20:56:56.433Z,14.38
2022-12-06T20:59:24.385Z,14.82
2022-12-06T21:01:52.197Z,15.12
2022-12-06T21:04:20.277Z,15.23
2022-12-06T21:06:47.877Z,15.31
2022-12-06T21:09:15.901Z,15.46
2022-12-06T21:11:43.785Z,15.57
2022-12-06T21:14:15.453Z,15.64
2022-12-06T21:16:44.129Z,15.65
2022-12-06T21:19:16.858Z,15.41
2022-12-06T21:21:49.383Z,15.21
2022-12-06T21:24:20.899Z,15.21
2022-12-06T21:26:49.476Z,14.85
2022-12-06T21:29:29.805Z,14.45
2022-12-06T21:32:01.773Z,14.27
2022-12-06T21:34:29.672Z,14.77
2022-12-06T21:36:57.340Z,14.95
2022-12-06T21:39:25.541Z,15.00
2022-12-06T21:41:54.097Z,15.11
2022-12-06T21:44:22.076Z,15.03
2022-12-06T21:46:54.019Z,15.04
2022-12-06T21:49:21.893Z,14.95
2022-12-06T21:51:51.080Z,14.85
2022-12-06T21:54:20.714Z,14.86
2022-12-06T21:56:48.551Z,15.01
2022-12-06T21:59:16.324Z,15.12
2022-12-06T22:01:44.287Z,15.05
2022-12-06T22:04:12.781Z,14.66
2022-12-06T22:06:41.932Z,14.41
2022-12-06T22:09:11.393Z,14.60
2022-12-06T22:11:40.121Z,14.98
2022-12-06T22:14:08.719Z,15.11
2022-12-06T22:16:36.438Z,15.42
2022-12-06T22:19:04.588Z,15.55
2022-12-06T22:21:33.271Z,15.62
2022-12-06T22:24:01.190Z,15.78
2022-12-06T22:26:31.118Z,15.86
2022-12-06T22:29:00.677Z,16.00
2022-12-06T22:31:33.718Z,16.05
2022-12-06T22:34:02.541Z,16.14
2022-12-06T22:36:31.102Z,15.99
2022-12-06T22:39:02.146Z,15.58
2022-12-06T22:41:30.533Z,15.39
2022-12-06T22:44:04.959Z,15.97
2022-12-06T22:46:34.508Z,16.57
2022-12-06T22:49:02.494Z,16.75
2022-12-06T22:51:37.054Z,17.29
2022-12-06T22:54:09.927Z,17.53
2022-12-06T22:56:40.695Z,17.69
2022-12-06T22:59:09.523Z,17.69
2022-12-06T23:01:37.253Z,17.79
2022-12-06T23:04:07.075Z,17.85
2022-12-06T23:06:35.947Z,17.84
2022-12-06T23:09:06.485Z,17.73
2022-12-06T23:11:36.424Z,17.03
2022-12-06T23:14:05.188Z,16.46
2022-12-06T23:16:34.861Z,16.24
2022-12-06T23:19:03.834Z,16.73
2022-12-06T23:21:33.824Z,17.13
2022-12-06T23:24:06.297Z,17.31
2022-12-06T23:26:41.051Z,17.63
2022-12-06T23:29:09.717Z,17.99
2022-12-06T23:31:40.939Z,18.01
2022-12-06T23:34:22.655Z,17.64
2022-12-06T23:36:50.665Z,17.43
2022-12-06T23:39:18.954Z,17.22
2022-12-06T23:41:46.911Z,16.61
2022-12-06T23:44:16.284Z,15.84
2022-12-06T23:46:44.599Z,15.48
2022-12-06T23:49:21.539Z,15.23
2022-12-06T23:51:49.800Z,14.97
2022-12-06T23:54:18.430Z,14.83
2022-12-06T23:56:47.105Z,14.67
2022-12-06T23:59:16.227Z,14.57
